Aérodrome :
LOGIN :

S'inscrire | Disclaimer

   EN    FR    IT 

 










Légende :    VFR   VFR Marginal   IFR   IFR Intensif   IFR Très Intensif
Visi : 
Plafond : 
>= 8 km
>= 3000ft
5 à 8 km
1000 à 3000 ft
1500m à 5 km
500 à 1000 ft
800 à 1500m
200 à 500 ft
< 800m
< 200 ft
Symboles :   Orages  Brouillard  Fortes neiges  Fortes précipitations  Vent > 20 kt
SIGMETs :   Divers  Orages  Givrage  Turbulence  Onde Orograph.  Cendres Volcan.






- Altitude de l'aérodrome : 267 ft


EGDR - Culdrose Navy

DERNIER METAR :
  • 150750Z 29006KT 9999 VCSH FEW007 SCT018 11/11 Q1004 TEMPO 7000 -SHRA SCT010 RMK WHT TEMPO GRN

METARs EXPIRÉS :
  • 150722Z 28006KT 5000 VCSH FEW014 SCT016 11/11 Q1003 WHT TEMPO 7000 -SHRA SCT010 RMK WHT TEMPO GRN
  • 150650Z 28006KT 9999 MIFG FEW014 10/10 Q1003 TEMPO 7000 -SHRA SCT010 RMK BLU TEMPO GRN
  • 150623Z 28006KT 9999 VCFG FEW014 09/09 Q1003 TEMPO 7000 -SHRA SCT010 RMK BLU TEMPO GRN
  • 150550Z 29004KT 9999 VCFG FEW014 SCT025 10/10 Q1002 TEMPO 7000 -SHRA SCT010 RMK BLU TEMPO GRN
  • 150522Z 29005KT 9999 VCFG FEW014 SCT025 09/09 Q1002 TEMPO 7000 -SHRA SCT010 RMK BLU TEMPO GRN

TAF TAF EGDR
Valide du 15 à 06h jusqu'au 15 à 15h UTC


150506Z 1506/1515 30008KT 9999 FEW012 SCT040
PROB30
TEMPO 1506/1510 7000 -SHRA SCT010 BKN018TCU
BECMG 1510/1512 25010KT
BECMG 1513/1515 20010KT SCT020



MET'MAP, la Météo Aéronautique d'un coup d'oeil ! - Copyright ORBIFLY Décembre 2007 - Disclaimer

ORBIFLY MET'MAP TEAM :

Programmation & Développement : Alexandra Zaïnal
Conception & Développement : Baudouin d'Aumeries
Co-Programmation & Développement : Marc-Olivier Méhu
Soutien technique & logistique : Manuel Goepfert

Contact : metmap@orbifly.com




SOURCES & CREDITS :

   NOAA